Time;durP1;ratioP1;P1;durP2;ratioP2;P2;SDS_P1;SDS_P2;PMS_P1;PMS_P2;Temp;Humidity;BMP_temperature;BMP_pressure;BME280_temperature;BME280_humidity;BME280_pressure;Samples;Min_cycle;Max_cycle;Signal;HPM_P1;HPM_P2
2023/07/23 00:01:12;;;;;;;6.40;4.07;;;;;;;;;;5051476;28;20425;-49
2023/07/23 00:03:38;;;;;;;5.20;4.70;;;;;;;;;;5051510;28;20416;-44
2023/07/23 00:06:04;;;;;;;6.63;4.90;;;;;;;;;;5051559;28;20470;-44
2023/07/23 00:08:30;;;;;;;8.50;5.20;;;;;;;;;;5050476;28;20423;-44
2023/07/23 00:10:57;;;;;;;4.60;4.20;;;;;;;;;;5051183;28;20385;-43
2023/07/23 00:13:23;;;;;;;5.90;4.27;;;;;;;;;;5049960;28;20778;-45
2023/07/23 00:15:49;;;;;;;6.53;4.70;;;;;;;;;;5051650;28;20442;-43
2023/07/23 00:18:15;;;;;;;7.67;5.03;;;;;;;;;;5051473;28;20413;-44
2023/07/23 00:20:41;;;;;;;5.80;4.90;;;;;;;;;;5051229;28;20396;-47
2023/07/23 00:23:07;;;;;;;5.27;4.67;;;;;;;;;;5050695;28;20418;-44
2023/07/23 00:25:33;;;;;;;6.20;4.40;;;;;;;;;;5051616;28;20551;-45
2023/07/23 00:27:59;;;;;;;6.30;5.13;;;;;;;;;;5051256;28;20386;-46
2023/07/23 00:30:25;;;;;;;8.40;4.40;;;;;;;;;;5045235;28;20431;-47
2023/07/23 00:32:51;;;;;;;12.37;5.07;;;;;;;;;;5051287;28;20757;-44
2023/07/23 00:35:19;;;;;;;6.40;4.80;;;;;;;;;;5051910;28;20426;-49
2023/07/23 00:37:45;;;;;;;7.80;4.63;;;;;;;;;;5051240;28;20470;-49
2023/07/23 00:40:11;;;;;;;7.63;6.07;;;;;;;;;;5050865;28;20480;-50
2023/07/23 00:42:37;;;;;;;4.83;4.40;;;;;;;;;;5050609;28;20877;-50
2023/07/23 00:45:03;;;;;;;10.23;4.90;;;;;;;;;;5050757;28;20508;-49
2023/07/23 00:47:30;;;;;;;5.77;5.17;;;;;;;;;;5053617;28;20377;-50
2023/07/23 00:49:56;;;;;;;5.07;4.37;;;;;;;;;;5054491;28;20453;-50
2023/07/23 00:52:22;;;;;;;7.63;4.53;;;;;;;;;;5054862;28;20394;-49
2023/07/23 00:54:48;;;;;;;6.00;4.20;;;;;;;;;;5054627;28;20407;-49
2023/07/23 00:57:14;;;;;;;7.43;4.97;;;;;;;;;;5054877;28;20905;-49
2023/07/23 00:59:40;;;;;;;7.57;4.73;;;;;;;;;;5054445;28;20430;-50
2023/07/23 01:02:06;;;;;;;4.40;4.00;;;;;;;;;;5054183;28;20393;-50
2023/07/23 01:04:33;;;;;;;5.50;5.00;;;;;;;;;;5053999;28;20484;-49
2023/07/23 01:07:00;;;;;;;7.03;4.93;;;;;;;;;;5054248;28;20453;-49
2023/07/23 01:09:27;;;;;;;4.87;4.37;;;;;;;;;;5054371;28;20436;-48
2023/07/23 01:11:53;;;;;;;6.10;4.60;;;;;;;;;;5052582;28;20403;-48
2023/07/23 01:14:19;;;;;;;4.47;4.17;;;;;;;;;;5054277;28;20418;-47
2023/07/23 01:16:45;;;;;;;6.20;4.93;;;;;;;;;;5054399;28;20409;-49
2023/07/23 01:19:12;;;;;;;5.43;4.93;;;;;;;;;;5050512;28;20455;-49
2023/07/23 01:21:39;;;;;;;6.53;4.30;;;;;;;;;;5053891;28;20924;-49
2023/07/23 01:24:05;;;;;;;6.67;4.97;;;;;;;;;;5054086;28;20423;-49
2023/07/23 01:26:31;;;;;;;6.00;5.23;;;;;;;;;;5047634;28;20461;-50
2023/07/23 01:28:57;;;;;;;5.97;4.80;;;;;;;;;;5049510;28;20411;-49
2023/07/23 01:31:23;;;;;;;6.40;5.00;;;;;;;;;;5050551;28;20501;-50
2023/07/23 01:33:49;;;;;;;4.90;4.40;;;;;;;;;;5054138;28;20417;-47
2023/07/23 01:36:16;;;;;;;4.70;4.30;;;;;;;;;;5050781;28;20437;-48
2023/07/23 01:38:42;;;;;;;5.70;4.70;;;;;;;;;;5049523;28;20512;-50
2023/07/23 01:41:08;;;;;;;5.77;4.90;;;;;;;;;;5054030;28;20427;-49
2023/07/23 01:43:34;;;;;;;4.57;4.17;;;;;;;;;;5053765;28;20394;-50
2023/07/23 01:46:00;;;;;;;7.50;5.30;;;;;;;;;;5052265;28;20463;-47
2023/07/23 01:48:26;;;;;;;5.20;4.63;;;;;;;;;;5053242;28;20804;-48
2023/07/23 01:50:52;;;;;;;5.47;4.97;;;;;;;;;;5053484;28;20998;-51
2023/07/23 01:53:18;;;;;;;5.10;4.60;;;;;;;;;;5053769;28;20420;-50
2023/07/23 01:55:43;;;;;;;6.67;5.13;;;;;;;;;;5053369;28;20418;-47
2023/07/23 01:58:09;;;;;;;7.47;5.30;;;;;;;;;;5053679;28;20384;-50
2023/07/23 02:00:35;;;;;;;7.13;5.33;;;;;;;;;;5051871;28;20483;-50
2023/07/23 02:03:01;;;;;;;5.23;4.20;;;;;;;;;;5053432;28;20387;-50
2023/07/23 02:05:27;;;;;;;5.50;4.77;;;;;;;;;;5053255;28;20590;-48
2023/07/23 02:07:53;;;;;;;7.67;5.73;;;;;;;;;;5053500;28;20470;-47
2023/07/23 02:10:20;;;;;;;7.80;5.37;;;;;;;;;;5053144;28;20401;-50
2023/07/23 02:12:46;;;;;;;9.70;4.80;;;;;;;;;;5053281;28;20380;-49
2023/07/23 02:15:12;;;;;;;5.80;4.90;;;;;;;;;;5053223;28;20477;-47
2023/07/23 02:17:38;;;;;;;5.50;4.33;;;;;;;;;;5053178;28;20415;-49
2023/07/23 02:20:06;;;;;;;7.70;4.73;;;;;;;;;;5052938;28;20425;-47
2023/07/23 02:22:32;;;;;;;6.47;4.80;;;;;;;;;;5053194;28;20770;-50
2023/07/23 02:24:57;;;;;;;6.20;4.57;;;;;;;;;;5047378;28;20896;-50
2023/07/23 02:27:23;;;;;;;4.67;4.20;;;;;;;;;;5050236;28;20463;-49
2023/07/23 02:29:49;;;;;;;10.10;4.60;;;;;;;;;;5052970;28;20471;-49
2023/07/23 02:32:15;;;;;;;5.57;5.07;;;;;;;;;;5052721;28;20417;-48
2023/07/23 02:34:41;;;;;;;5.63;4.90;;;;;;;;;;5052920;28;20809;-50
2023/07/23 02:37:07;;;;;;;8.17;4.80;;;;;;;;;;5052945;28;20395;-50
2023/07/23 02:39:33;;;;;;;5.87;4.90;;;;;;;;;;5052867;28;20451;-49
2023/07/23 02:41:59;;;;;;;5.73;5.10;;;;;;;;;;5051568;28;20406;-50
2023/07/23 02:44:25;;;;;;;5.73;4.60;;;;;;;;;;5052722;28;20423;-48
2023/07/23 02:46:51;;;;;;;11.10;5.07;;;;;;;;;;5050894;28;20423;-48
2023/07/23 02:49:17;;;;;;;6.03;3.90;;;;;;;;;;5049826;28;20427;-49
2023/07/23 02:51:43;;;;;;;5.80;4.90;;;;;;;;;;5052530;28;20391;-46
2023/07/23 02:54:09;;;;;;;5.97;4.30;;;;;;;;;;5052660;28;20409;-48
2023/07/23 02:56:35;;;;;;;10.23;4.90;;;;;;;;;;5051261;28;20425;-49
2023/07/23 02:59:03;;;;;;;5.90;4.80;;;;;;;;;;5052420;28;20523;-49
2023/07/23 03:01:29;;;;;;;5.50;4.80;;;;;;;;;;5052213;28;20427;-48
2023/07/23 03:03:55;;;;;;;5.43;4.97;;;;;;;;;;5052523;28;20395;-48
2023/07/23 03:06:21;;;;;;;6.00;4.57;;;;;;;;;;5052391;28;20860;-49
2023/07/23 03:08:47;;;;;;;5.47;4.40;;;;;;;;;;5051885;28;20783;-47
2023/07/23 03:11:13;;;;;;;8.53;5.17;;;;;;;;;;5050906;28;20758;-49
2023/07/23 03:13:39;;;;;;;5.27;4.77;;;;;;;;;;5049405;28;20475;-49
2023/07/23 03:16:05;;;;;;;6.63;5.00;;;;;;;;;;5052049;28;20384;-43
2023/07/23 03:18:31;;;;;;;5.80;4.40;;;;;;;;;;5050779;28;20381;-44
2023/07/23 03:20:57;;;;;;;5.13;4.63;;;;;;;;;;5051804;28;20866;-43
2023/07/23 03:23:23;;;;;;;5.07;4.53;;;;;;;;;;5052122;28;20438;-43
2023/07/23 03:25:49;;;;;;;5.77;4.67;;;;;;;;;;5050738;28;20542;-43
2023/07/23 03:28:15;;;;;;;6.47;5.57;;;;;;;;;;5051910;28;20422;-44
2023/07/23 03:30:41;;;;;;;6.20;4.57;;;;;;;;;;5047925;28;20454;-48
2023/07/23 03:33:07;;;;;;;4.63;4.23;;;;;;;;;;5048059;28;20377;-49
2023/07/23 03:35:33;;;;;;;5.17;4.60;;;;;;;;;;5051383;28;20868;-49
2023/07/23 03:37:59;;;;;;;6.03;4.30;;;;;;;;;;5052092;28;20805;-49
2023/07/23 03:40:25;;;;;;;5.20;4.70;;;;;;;;;;5054101;28;20403;-49
2023/07/23 03:42:51;;;;;;;5.50;5.00;;;;;;;;;;5052255;28;20418;-49
2023/07/23 03:45:17;;;;;;;5.23;4.73;;;;;;;;;;5051520;28;20421;-49
2023/07/23 03:47:43;;;;;;;6.13;4.80;;;;;;;;;;5047209;28;20414;-48
2023/07/23 03:50:09;;;;;;;6.40;5.40;;;;;;;;;;5045751;28;20865;-49
2023/07/23 03:52:35;;;;;;;9.30;5.30;;;;;;;;;;5051288;28;20420;-49
2023/07/23 03:55:01;;;;;;;5.27;4.47;;;;;;;;;;5051889;28;20394;-49
2023/07/23 03:57:27;;;;;;;6.83;4.60;;;;;;;;;;5050507;28;20471;-48
2023/07/23 03:59:53;;;;;;;5.77;4.83;;;;;;;;;;5048663;28;20484;-44
2023/07/23 04:02:19;;;;;;;5.63;4.90;;;;;;;;;;5051536;28;20434;-44
2023/07/23 04:04:45;;;;;;;6.77;5.10;;;;;;;;;;5051504;28;20428;-44
2023/07/23 04:07:11;;;;;;;5.50;4.80;;;;;;;;;;5044167;28;20456;-44
2023/07/23 04:09:37;;;;;;;5.40;4.80;;;;;;;;;;5043200;28;20952;-45
2023/07/23 04:12:03;;;;;;;10.30;5.20;;;;;;;;;;5051396;28;20871;-46
2023/07/23 04:14:29;;;;;;;4.63;4.10;;;;;;;;;;5051593;28;20407;-45
2023/07/23 04:16:56;;;;;;;5.93;4.20;;;;;;;;;;5051739;28;20400;-44
2023/07/23 04:19:23;;;;;;;9.03;4.70;;;;;;;;;;5048149;28;20418;-44
2023/07/23 04:21:49;;;;;;;4.80;4.17;;;;;;;;;;5055531;28;20417;-44
2023/07/23 04:24:15;;;;;;;5.67;3.80;;;;;;;;;;5054789;28;20392;-47
2023/07/23 04:26:41;;;;;;;6.90;4.77;;;;;;;;;;5055322;28;20629;-44
2023/07/23 04:29:08;;;;;;;5.50;4.90;;;;;;;;;;5051698;28;20438;-43
2023/07/23 04:31:34;;;;;;;5.07;4.47;;;;;;;;;;5046368;28;20436;-46
2023/07/23 04:34:00;;;;;;;4.87;4.50;;;;;;;;;;5055350;28;20390;-48
2023/07/23 04:36:28;;;;;;;4.80;4.40;;;;;;;;;;5047761;28;20383;-44
2023/07/23 04:38:54;;;;;;;7.50;4.97;;;;;;;;;;5054369;28;20938;-44
2023/07/23 04:41:20;;;;;;;5.93;4.97;;;;;;;;;;5044110;28;20761;-44
2023/07/23 04:43:46;;;;;;;5.93;4.80;;;;;;;;;;5051081;28;20823;-44
2023/07/23 04:46:12;;;;;;;4.93;4.53;;;;;;;;;;5054842;28;21005;-44
2023/07/23 04:48:38;;;;;;;5.40;4.63;;;;;;;;;;5054566;28;21224;-44
2023/07/23 04:51:05;;;;;;;10.10;4.87;;;;;;;;;;5054649;28;20388;-44
2023/07/23 04:53:31;;;;;;;6.33;4.40;;;;;;;;;;5045987;28;20390;-44
2023/07/23 04:55:58;;;;;;;5.43;3.70;;;;;;;;;;5054913;28;20421;-44
2023/07/23 04:58:25;;;;;;;4.47;4.07;;;;;;;;;;5050696;28;20417;-47
2023/07/23 05:00:51;;;;;;;8.50;4.80;;;;;;;;;;5054566;28;20408;-44
2023/07/23 05:03:17;;;;;;;5.77;4.23;;;;;;;;;;5047505;28;20485;-44
2023/07/23 05:05:45;;;;;;;5.03;4.33;;;;;;;;;;5054853;28;20464;-44
2023/07/23 05:08:12;;;;;;;5.27;4.40;;;;;;;;;;5052495;28;20411;-44
2023/07/23 05:10:39;;;;;;;4.50;4.10;;;;;;;;;;5038239;28;20421;-44
2023/07/23 05:13:05;;;;;;;6.40;4.23;;;;;;;;;;5054575;28;20777;-44
2023/07/23 05:15:31;;;;;;;7.73;4.40;;;;;;;;;;5037787;28;20500;-44
2023/07/23 05:17:57;;;;;;;4.20;3.80;;;;;;;;;;5040717;28;20414;-44
2023/07/23 05:20:23;;;;;;;4.93;3.70;;;;;;;;;;5052447;28;20549;-45
2023/07/23 05:22:48;;;;;;;4.30;3.90;;;;;;;;;;5047116;28;20469;-45
2023/07/23 05:25:15;;;;;;;4.10;3.70;;;;;;;;;;5039771;28;20414;-46
2023/07/23 05:27:40;;;;;;;5.33;4.53;;;;;;;;;;5053099;28;20371;-49
2023/07/23 05:30:07;;;;;;;4.03;3.73;;;;;;;;;;5040867;28;20455;-44
2023/07/23 05:32:33;;;;;;;5.47;3.80;;;;;;;;;;5047782;28;20444;-44
2023/07/23 05:34:59;;;;;;;4.90;4.50;;;;;;;;;;5054077;28;20908;-44
2023/07/23 05:37:25;;;;;;;4.30;3.90;;;;;;;;;;5052533;28;20393;-44
2023/07/23 05:39:54;;;;;;;4.30;3.73;;;;;;;;;;5053828;28;20435;-44
2023/07/23 05:42:21;;;;;;;3.33;3.13;;;;;;;;;;5049180;28;20473;-45
2023/07/23 05:44:47;;;;;;;4.13;3.40;;;;;;;;;;5053725;28;20527;-44
2023/07/23 05:47:13;;;;;;;12.33;4.40;;;;;;;;;;5053553;28;20485;-45
2023/07/23 05:49:39;;;;;;;6.83;3.60;;;;;;;;;;5045533;28;20447;-51
2023/07/23 05:52:05;;;;;;;3.83;3.47;;;;;;;;;;5052392;28;20407;-47
2023/07/23 05:54:31;;;;;;;3.97;3.63;;;;;;;;;;5053659;28;20539;-45
2023/07/23 05:56:59;;;;;;;3.97;3.67;;;;;;;;;;5053852;28;20954;-46
2023/07/23 05:59:25;;;;;;;5.10;3.60;;;;;;;;;;5049569;28;20538;-44
2023/07/23 06:01:51;;;;;;;5.77;3.70;;;;;;;;;;5048656;28;20433;-49
2023/07/23 06:04:17;;;;;;;4.17;3.77;;;;;;;;;;5051791;28;20426;-44
2023/07/23 06:06:43;;;;;;;4.97;3.83;;;;;;;;;;5053123;28;20970;-45
2023/07/23 06:09:10;;;;;;;5.50;3.63;;;;;;;;;;5050066;28;20564;-48
2023/07/23 06:11:36;;;;;;;4.37;3.00;;;;;;;;;;5052887;28;20545;-43
2023/07/23 06:14:02;;;;;;;3.97;3.10;;;;;;;;;;5046492;28;20381;-43
2023/07/23 06:16:30;;;;;;;3.97;3.57;;;;;;;;;;5052903;28;20421;-44
2023/07/23 06:18:56;;;;;;;3.63;3.20;;;;;;;;;;5052804;28;20465;-45
2023/07/23 06:21:22;;;;;;;8.10;3.70;;;;;;;;;;5051250;28;20430;-44
2023/07/23 06:23:48;;;;;;;6.50;3.53;;;;;;;;;;5052510;28;20882;-44
2023/07/23 06:26:14;;;;;;;5.20;3.73;;;;;;;;;;5052618;28;20850;-48
2023/07/23 06:28:40;;;;;;;3.80;3.40;;;;;;;;;;5052923;28;20857;-47
2023/07/23 06:31:06;;;;;;;6.30;3.97;;;;;;;;;;5060984;28;20405;-50
2023/07/23 06:33:32;;;;;;;3.50;3.20;;;;;;;;;;5051498;28;20471;-43
2023/07/23 06:35:58;;;;;;;4.50;3.40;;;;;;;;;;5053020;28;20422;-44
2023/07/23 06:38:24;;;;;;;4.03;3.63;;;;;;;;;;5052729;28;20399;-44
2023/07/23 06:40:54;;;;;;;4.00;3.70;;;;;;;;;;5052697;28;20827;-44
2023/07/23 06:43:20;;;;;;;4.60;3.57;;;;;;;;;;5051947;28;20412;-44
2023/07/23 06:45:47;;;;;;;4.50;3.73;;;;;;;;;;5052674;28;20487;-44
2023/07/23 06:48:13;;;;;;;4.20;3.67;;;;;;;;;;5051432;28;20501;-45
2023/07/23 06:50:39;;;;;;;9.37;3.80;;;;;;;;;;5052364;28;20996;-50
2023/07/23 06:53:05;;;;;;;5.63;4.30;;;;;;;;;;5052500;28;20487;-49
2023/07/23 06:55:32;;;;;;;4.77;3.97;;;;;;;;;;5046281;28;20936;-50
2023/07/23 06:57:58;;;;;;;4.20;3.83;;;;;;;;;;5051375;28;20425;-44
2023/07/23 07:00:24;;;;;;;7.13;3.70;;;;;;;;;;5050922;28;20460;-49
2023/07/23 07:02:50;;;;;;;4.13;3.73;;;;;;;;;;5052529;28;20488;-49
2023/07/23 07:05:16;;;;;;;3.70;3.40;;;;;;;;;;5052132;28;20422;-44
2023/07/23 07:07:41;;;;;;;3.70;3.40;;;;;;;;;;5047819;28;20420;-44
2023/07/23 07:10:08;;;;;;;3.53;3.23;;;;;;;;;;5043756;28;20417;-45
2023/07/23 07:12:34;;;;;;;3.73;3.03;;;;;;;;;;5044300;28;20416;-48
2023/07/23 07:15:00;;;;;;;5.10;3.17;;;;;;;;;;5050611;28;20443;-47
2023/07/23 07:17:26;;;;;;;5.00;3.03;;;;;;;;;;5050302;28;20437;-44
2023/07/23 07:19:52;;;;;;;5.90;3.50;;;;;;;;;;5049941;28;20403;-44
2023/07/23 07:22:18;;;;;;;4.13;3.30;;;;;;;;;;5050825;28;20413;-49
2023/07/23 07:24:44;;;;;;;5.50;3.97;;;;;;;;;;5050713;28;20448;-50
2023/07/23 07:27:10;;;;;;;4.10;3.73;;;;;;;;;;5052184;28;20468;-49
2023/07/23 07:29:39;;;;;;;8.80;4.37;;;;;;;;;;5050807;28;20516;-49
2023/07/23 07:32:06;;;;;;;7.87;3.67;;;;;;;;;;5052032;28;20423;-50
2023/07/23 07:34:32;;;;;;;6.50;4.43;;;;;;;;;;5051833;28;20413;-44
2023/07/23 07:36:58;;;;;;;5.90;4.03;;;;;;;;;;5051891;28;20395;-46
2023/07/23 07:39:24;;;;;;;7.23;4.30;;;;;;;;;;5051574;28;20804;-44
2023/07/23 07:41:50;;;;;;;10.30;3.83;;;;;;;;;;5051777;28;20762;-44
2023/07/23 07:44:16;;;;;;;4.27;3.70;;;;;;;;;;5050626;28;20712;-43
2023/07/23 07:46:42;;;;;;;5.37;3.80;;;;;;;;;;5051555;28;20471;-49
2023/07/23 07:49:08;;;;;;;5.40;3.90;;;;;;;;;;5047289;28;20436;-49
2023/07/23 07:51:35;;;;;;;4.70;3.60;;;;;;;;;;5051521;28;20395;-47
2023/07/23 07:54:01;;;;;;;4.40;3.67;;;;;;;;;;5051461;28;20413;-50
2023/07/23 07:56:27;;;;;;;10.43;3.47;;;;;;;;;;5051761;28;20460;-43
2023/07/23 07:58:53;;;;;;;6.17;3.60;;;;;;;;;;5052515;28;20403;-48
2023/07/23 08:01:19;;;;;;;4.23;3.83;;;;;;;;;;5052858;28;20379;-43
2023/07/23 08:03:45;;;;;;;4.00;3.03;;;;;;;;;;5051599;28;20412;-43
2023/07/23 08:06:12;;;;;;;5.33;3.80;;;;;;;;;;5051502;28;20438;-44
2023/07/23 08:08:39;;;;;;;3.97;3.57;;;;;;;;;;5051160;28;20791;-44
2023/07/23 08:11:07;;;;;;;4.90;4.50;;;;;;;;;;5050403;28;20424;-44
2023/07/23 08:13:33;;;;;;;5.50;3.70;;;;;;;;;;5048609;28;20429;-44
2023/07/23 08:15:59;;;;;;;3.97;3.67;;;;;;;;;;5051611;28;20768;-43
2023/07/23 08:18:26;;;;;;;5.63;4.40;;;;;;;;;;5051380;28;20482;-44
2023/07/23 08:20:54;;;;;;;5.50;3.43;;;;;;;;;;5050800;28;20417;-47
2023/07/23 08:23:20;;;;;;;6.43;3.50;;;;;;;;;;5048387;28;20443;-44
2023/07/23 08:25:48;;;;;;;4.87;3.37;;;;;;;;;;5051077;28;20466;-45
2023/07/23 08:28:19;;;;;;;6.93;3.50;;;;;;;;;;5051713;28;20574;-45
2023/07/23 08:30:45;;;;;;;3.90;3.40;;;;;;;;;;5044364;28;20853;-44
2023/07/23 08:33:11;;;;;;;6.20;3.50;;;;;;;;;;5052734;28;20443;-44
2023/07/23 08:35:37;;;;;;;5.90;3.20;;;;;;;;;;5051321;28;20423;-47
2023/07/23 08:38:03;;;;;;;6.90;3.37;;;;;;;;;;5051384;28;20565;-46
2023/07/23 08:40:29;;;;;;;5.10;3.23;;;;;;;;;;5050528;28;20447;-47
2023/07/23 08:42:55;;;;;;;3.40;3.10;;;;;;;;;;5046133;28;20426;-48
2023/07/23 08:45:24;;;;;;;3.90;3.53;;;;;;;;;;5051190;28;20507;-44
2023/07/23 08:48:00;;;;;;;4.23;3.67;;;;;;;;;;5051218;28;20386;-45
2023/07/23 08:50:26;;;;;;;4.53;3.27;;;;;;;;;;5050696;28;20896;-43
2023/07/23 08:52:53;;;;;;;5.33;3.90;;;;;;;;;;5051312;28;20407;-45
2023/07/23 08:55:19;;;;;;;3.53;3.23;;;;;;;;;;5050946;28;20415;-43
2023/07/23 08:57:45;;;;;;;5.30;3.50;;;;;;;;;;5051059;28;20409;-44
2023/07/23 09:00:11;;;;;;;3.83;3.53;;;;;;;;;;5050855;28;20460;-47
2023/07/23 09:02:40;;;;;;;5.37;3.17;;;;;;;;;;5050887;28;20754;-46
2023/07/23 09:05:06;;;;;;;3.20;2.90;;;;;;;;;;5051121;28;20416;-44
2023/07/23 09:07:34;;;;;;;3.07;2.87;;;;;;;;;;5053531;28;20474;-44
2023/07/23 09:10:00;;;;;;;9.30;3.60;;;;;;;;;;5054033;28;20439;-45
2023/07/23 09:12:27;;;;;;;4.23;3.93;;;;;;;;;;5054392;28;20393;-48
2023/07/23 09:14:53;;;;;;;5.60;3.33;;;;;;;;;;5054457;28;20386;-44
2023/07/23 09:17:20;;;;;;;3.90;3.23;;;;;;;;;;5054335;28;20466;-46
2023/07/23 09:19:45;;;;;;;5.07;3.90;;;;;;;;;;5054128;28;20430;-44
2023/07/23 09:22:11;;;;;;;4.53;3.63;;;;;;;;;;5053397;28;20426;-43
2023/07/23 09:24:37;;;;;;;5.10;3.70;;;;;;;;;;5054367;28;20475;-44
2023/07/23 09:27:04;;;;;;;3.77;3.47;;;;;;;;;;5054277;28;20441;-46
2023/07/23 09:29:36;;;;;;;9.03;4.33;;;;;;;;;;5054142;28;20445;-44
2023/07/23 09:32:02;;;;;;;4.23;3.70;;;;;;;;;;5054045;28;20407;-44
2023/07/23 09:34:28;;;;;;;7.30;4.00;;;;;;;;;;5053036;28;20416;-44
2023/07/23 09:36:55;;;;;;;4.20;3.87;;;;;;;;;;5054169;28;20399;-45
2023/07/23 09:39:25;;;;;;;4.50;4.00;;;;;;;;;;5051610;28;20510;-43
2023/07/23 09:41:51;;;;;;;4.43;4.03;;;;;;;;;;5053833;28;20387;-44
2023/07/23 09:44:17;;;;;;;4.20;3.80;;;;;;;;;;5053882;28;20392;-44
2023/07/23 09:46:46;;;;;;;6.53;4.30;;;;;;;;;;5046170;28;21033;-44
2023/07/23 09:49:13;;;;;;;5.40;4.03;;;;;;;;;;5052987;28;20751;-47
2023/07/23 09:51:39;;;;;;;4.43;4.03;;;;;;;;;;5053638;28;20388;-43
2023/07/23 09:54:05;;;;;;;4.20;3.80;;;;;;;;;;5053748;28;20792;-43
2023/07/23 09:56:36;;;;;;;4.03;3.63;;;;;;;;;;5053772;28;20451;-44
2023/07/23 09:59:02;;;;;;;4.60;3.80;;;;;;;;;;5053703;28;20432;-44
2023/07/23 10:01:28;;;;;;;4.50;4.13;;;;;;;;;;5053481;28;20420;-45
2023/07/23 10:03:55;;;;;;;5.73;4.50;;;;;;;;;;5052874;28;20472;-46
2023/07/23 10:06:23;;;;;;;3.37;3.07;;;;;;;;;;5053519;28;20461;-43
2023/07/23 10:08:50;;;;;;;4.80;3.90;;;;;;;;;;5053397;28;20404;-44
2023/07/23 10:11:17;;;;;;;3.80;3.60;;;;;;;;;;5053399;28;20894;-43
2023/07/23 10:13:44;;;;;;;4.00;3.70;;;;;;;;;;5053321;28;20413;-47
2023/07/23 10:16:15;;;;;;;3.97;3.57;;;;;;;;;;5052851;28;20414;-44
2023/07/23 10:18:42;;;;;;;4.90;4.40;;;;;;;;;;5045650;28;20389;-44
2023/07/23 10:21:09;;;;;;;3.93;3.63;;;;;;;;;;5050728;28;20844;-47
2023/07/23 10:23:37;;;;;;;3.57;3.27;;;;;;;;;;5053041;28;20771;-44
2023/07/23 10:26:19;;;;;;;3.67;3.37;;;;;;;;;;5052974;28;20553;-43
2023/07/23 10:28:45;;;;;;;6.33;3.50;;;;;;;;;;5038556;28;20426;-45
2023/07/23 10:31:27;;;;;;;4.10;3.80;;;;;;;;;;5052262;28;20396;-45
2023/07/23 10:33:53;;;;;;;5.40;4.23;;;;;;;;;;5046883;28;20902;-45
2023/07/23 10:36:22;;;;;;;6.43;3.80;;;;;;;;;;5051840;28;20784;-44
2023/07/23 10:38:48;;;;;;;4.37;3.93;;;;;;;;;;5052944;28;20509;-45
2023/07/23 10:41:15;;;;;;;4.10;3.50;;;;;;;;;;5052775;28;20899;-44
2023/07/23 10:43:42;;;;;;;5.00;4.13;;;;;;;;;;5052954;28;20788;-44
2023/07/23 10:46:09;;;;;;;5.33;4.50;;;;;;;;;;5052611;28;20813;-46
2023/07/23 10:48:48;;;;;;;4.27;3.90;;;;;;;;;;5051059;28;20390;-44
2023/07/23 10:51:15;;;;;;;4.27;3.97;;;;;;;;;;5052422;28;20790;-44
2023/07/23 10:53:42;;;;;;;4.00;3.67;;;;;;;;;;5052605;28;20831;-44
2023/07/23 10:56:21;;;;;;;5.50;4.10;;;;;;;;;;5052567;28;20422;-44
2023/07/23 10:58:48;;;;;;;4.63;4.27;;;;;;;;;;5052241;28;20411;-47
2023/07/23 11:01:14;;;;;;;4.33;3.93;;;;;;;;;;5045464;28;20420;-44
2023/07/23 11:03:43;;;;;;;4.33;4.00;;;;;;;;;;5035736;28;20438;-44
2023/07/23 11:06:24;;;;;;;5.10;4.60;;;;;;;;;;5052498;28;20464;-44
2023/07/23 11:08:51;;;;;;;4.17;3.80;;;;;;;;;;5052427;28;20483;-44
2023/07/23 11:11:17;;;;;;;6.30;3.90;;;;;;;;;;5051899;28;20394;-45
2023/07/23 11:13:43;;;;;;;3.50;3.30;;;;;;;;;;5052209;28;20423;-44
2023/07/23 11:16:09;;;;;;;4.63;3.80;;;;;;;;;;5052231;28;20868;-44
2023/07/23 11:18:35;;;;;;;4.63;3.70;;;;;;;;;;5052094;28;20392;-47
2023/07/23 11:21:04;;;;;;;6.40;4.03;;;;;;;;;;5052024;28;20402;-44
2023/07/23 11:23:30;;;;;;;4.10;3.80;;;;;;;;;;5052072;28;20496;-44
2023/07/23 11:25:56;;;;;;;3.63;3.33;;;;;;;;;;5052031;28;20429;-44
2023/07/23 11:28:23;;;;;;;4.33;3.93;;;;;;;;;;5050507;28;20418;-46
2023/07/23 11:30:50;;;;;;;3.47;3.17;;;;;;;;;;5050593;28;20748;-44
2023/07/23 11:33:16;;;;;;;3.67;3.37;;;;;;;;;;5051457;28;20850;-44
2023/07/23 11:35:43;;;;;;;3.87;3.47;;;;;;;;;;5045415;28;20469;-48
2023/07/23 11:38:09;;;;;;;3.10;2.83;;;;;;;;;;5050860;28;20481;-44
2023/07/23 11:40:34;;;;;;;3.20;3.00;;;;;;;;;;5050957;28;20433;-44
2023/07/23 11:43:04;;;;;;;3.10;2.90;;;;;;;;;;5051857;28;20410;-44
2023/07/23 11:45:30;;;;;;;3.63;3.20;;;;;;;;;;5051535;28;20761;-44
2023/07/23 11:47:56;;;;;;;6.13;3.50;;;;;;;;;;5048108;28;20939;-44
2023/07/23 11:50:23;;;;;;;3.20;3.00;;;;;;;;;;5051222;28;20462;-44
2023/07/23 11:52:50;;;;;;;4.67;2.80;;;;;;;;;;5051665;28;20398;-44
2023/07/23 11:55:20;;;;;;;3.13;2.87;;;;;;;;;;5051191;28;20459;-44
2023/07/23 11:57:46;;;;;;;2.93;2.73;;;;;;;;;;5051591;28;20954;-44
2023/07/23 12:00:12;;;;;;;2.60;2.40;;;;;;;;;;5051295;28;20974;-43
2023/07/23 12:02:38;;;;;;;3.17;2.97;;;;;;;;;;5051609;28;20380;-44
2023/07/23 12:05:04;;;;;;;2.87;2.67;;;;;;;;;;5051537;28;20406;-44
2023/07/23 12:07:30;;;;;;;3.00;2.80;;;;;;;;;;5051349;28;20459;-44
2023/07/23 12:09:56;;;;;;;4.00;3.00;;;;;;;;;;5050448;28;20438;-44
2023/07/23 12:12:22;;;;;;;2.77;2.57;;;;;;;;;;5051661;28;20883;-47
2023/07/23 12:15:00;;;;;;;3.10;2.90;;;;;;;;;;5051537;28;20415;-45
2023/07/23 12:17:27;;;;;;;3.70;3.40;;;;;;;;;;5051515;28;20419;-46
2023/07/23 12:19:53;;;;;;;4.17;3.87;;;;;;;;;;5050941;28;20527;-44
2023/07/23 12:22:19;;;;;;;3.50;3.30;;;;;;;;;;5051297;28;20493;-45
2023/07/23 12:24:45;;;;;;;4.50;3.10;;;;;;;;;;5051460;28;20403;-48
2023/07/23 12:27:11;;;;;;;3.73;3.43;;;;;;;;;;5051596;28;20983;-44
2023/07/23 12:29:43;;;;;;;3.77;3.40;;;;;;;;;;5051230;28;20972;-44
2023/07/23 12:32:10;;;;;;;3.80;3.50;;;;;;;;;;5051240;28;20747;-44
2023/07/23 12:34:36;;;;;;;3.30;3.10;;;;;;;;;;5051074;28;20419;-46
2023/07/23 12:37:02;;;;;;;3.53;3.33;;;;;;;;;;5051355;28;20419;-46
2023/07/23 12:39:28;;;;;;;4.27;3.10;;;;;;;;;;5051152;28;20414;-48
2023/07/23 12:41:54;;;;;;;3.37;3.17;;;;;;;;;;5054305;28;20385;-43
2023/07/23 12:44:20;;;;;;;3.63;3.43;;;;;;;;;;5055298;28;20891;-44
2023/07/23 12:46:46;;;;;;;4.23;3.27;;;;;;;;;;5055074;28;21041;-43
2023/07/23 12:49:12;;;;;;;2.97;2.77;;;;;;;;;;5039736;28;20481;-44
2023/07/23 12:51:38;;;;;;;3.27;2.97;;;;;;;;;;5046706;28;20430;-44
2023/07/23 12:54:04;;;;;;;3.37;3.17;;;;;;;;;;5054888;28;20444;-44
2023/07/23 12:56:30;;;;;;;3.23;3.03;;;;;;;;;;5054965;28;20475;-45
2023/07/23 12:58:56;;;;;;;3.50;3.20;;;;;;;;;;5054861;28;20965;-49
2023/07/23 13:01:22;;;;;;;3.47;3.17;;;;;;;;;;5054841;28;20434;-48
2023/07/23 13:03:48;;;;;;;3.30;3.00;;;;;;;;;;5054443;28;20394;-49
2023/07/23 13:06:14;;;;;;;3.10;2.80;;;;;;;;;;5054693;28;21070;-44
2023/07/23 13:08:40;;;;;;;3.07;2.87;;;;;;;;;;5054603;28;20406;-43
2023/07/23 13:11:07;;;;;;;3.10;2.80;;;;;;;;;;5054403;28;20456;-44
2023/07/23 13:13:33;;;;;;;3.03;2.83;;;;;;;;;;5054528;28;20478;-44
2023/07/23 13:15:59;;;;;;;3.20;3.00;;;;;;;;;;5054502;28;20899;-44
2023/07/23 13:18:24;;;;;;;3.40;3.10;;;;;;;;;;5054252;28;20473;-44
2023/07/23 13:20:50;;;;;;;2.93;2.73;;;;;;;;;;5054358;28;20407;-44
2023/07/23 13:23:16;;;;;;;2.90;2.70;;;;;;;;;;5047366;28;20882;-46
2023/07/23 13:25:44;;;;;;;3.17;2.97;;;;;;;;;;5048676;28;20398;-49
2023/07/23 13:28:09;;;;;;;4.23;3.20;;;;;;;;;;5052354;28;20413;-46
2023/07/23 13:30:35;;;;;;;6.23;3.03;;;;;;;;;;5052415;28;20436;-44
2023/07/23 13:33:01;;;;;;;2.97;2.77;;;;;;;;;;5052775;28;20442;-44
2023/07/23 13:35:28;;;;;;;2.90;2.70;;;;;;;;;;5052698;28;20467;-47
2023/07/23 13:37:54;;;;;;;3.67;2.90;;;;;;;;;;5054135;28;20401;-44
2023/07/23 13:40:20;;;;;;;3.07;2.87;;;;;;;;;;5054009;28;20432;-46
2023/07/23 13:42:46;;;;;;;3.93;3.07;;;;;;;;;;5054093;28;20815;-48
2023/07/23 13:45:12;;;;;;;3.03;2.83;;;;;;;;;;5053965;28;20394;-44
2023/07/23 13:47:38;;;;;;;3.00;2.80;;;;;;;;;;5042152;28;20521;-44
2023/07/23 13:50:04;;;;;;;3.70;3.00;;;;;;;;;;5042336;28;20469;-44
2023/07/23 13:52:31;;;;;;;3.17;2.97;;;;;;;;;;5053306;28;20498;-44
2023/07/23 13:54:56;;;;;;;3.17;2.87;;;;;;;;;;5053842;28;20440;-44
2023/07/23 13:57:22;;;;;;;3.10;2.30;;;;;;;;;;5053951;28;20388;-44
2023/07/23 13:59:48;;;;;;;2.53;2.40;;;;;;;;;;5053525;28;20453;-44
2023/07/23 14:02:19;;;;;;;2.97;2.77;;;;;;;;;;5054047;28;20431;-45
2023/07/23 14:04:45;;;;;;;6.10;2.70;;;;;;;;;;5053798;28;20482;-44
2023/07/23 14:07:11;;;;;;;3.53;3.23;;;;;;;;;;5053775;28;20465;-44
2023/07/23 14:09:37;;;;;;;2.77;2.57;;;;;;;;;;5053354;28;20440;-48
2023/07/23 14:12:03;;;;;;;2.87;2.67;;;;;;;;;;5053426;28;20421;-45
2023/07/23 14:14:29;;;;;;;3.70;2.50;;;;;;;;;;5053665;28;20496;-45
2023/07/23 14:16:55;;;;;;;3.00;2.70;;;;;;;;;;5053376;28;20895;-46
2023/07/23 14:19:21;;;;;;;5.57;2.70;;;;;;;;;;5053287;28;20503;-44
2023/07/23 14:21:47;;;;;;;3.00;2.60;;;;;;;;;;5053057;28;20420;-44
2023/07/23 14:24:13;;;;;;;3.10;2.80;;;;;;;;;;5053091;28;20437;-46
2023/07/23 14:26:39;;;;;;;5.40;2.23;;;;;;;;;;5053334;28;20432;-45
2023/07/23 14:29:05;;;;;;;4.10;2.17;;;;;;;;;;5053082;28;20436;-45
2023/07/23 14:31:31;;;;;;;3.50;2.80;;;;;;;;;;5052777;28;20415;-45
2023/07/23 14:33:57;;;;;;;2.83;2.40;;;;;;;;;;5053046;28;20434;-47
2023/07/23 14:36:23;;;;;;;2.53;2.30;;;;;;;;;;5053103;28;20410;-48
2023/07/23 14:38:49;;;;;;;2.73;2.33;;;;;;;;;;5053069;28;20524;-44